Fs Ipanema — A8PT6 — position and weather

sailwx.info

Track history (hours):
 
Tides and Currents Weather Stations Pressure Air Temp Water Temp Dewpoint Dewpoint Depression Visibility Wind Speed Wind Dir Waves Ship Positions

Fs Ipanema

Last reported at 2017-Nov-11 22:15 UTC. Time now 2017-Nov-18 17:58 UTC.
Position N 25°28' W 079°36'.

Length 180 m; draft 8.3 m.

Type: Cargo ship. MMSI: 636018056.

Date/timePositionNaut miles runAvg speedWind from/ knotsBaromVisibWave heightAir tempDewpointWater temp
2017-Nov-11 22:15N 25°28' W 079°36'417.4
2017-Nov-11 22:00N 25°33' W 079°37'917.1
2017-Nov-11 21:30N 25°41' W 079°39'816.9
2017-Nov-11 21:00N 25°49' W 079°41'816.0
2017-Nov-11 20:30N 25°55' W 079°47'714.0
2017-Nov-11 20:00N 25°59' W 079°53'5 9.5
2017-Nov-11 19:31N 26°01' W 079°58'510.2
2017-Nov-11 19:00N 26°04' W 080°03'4 7.6
2017-Nov-11 18:30N 26°05' W 080°07'1 1.4
2017-Nov-11 17:54N 26°04' W 080°07'0 0.0
2017-Nov-11 17:24N 26°04' W 080°07'0 0.0
2017-Nov-11 16:54N 26°04' W 080°07'0 0.0
2017-Nov-11 16:24N 26°04' W 080°07'0 0.0
2017-Nov-11 16:00N 26°04' W 080°07'0 0.0
2017-Nov-11 15:30N 26°04' W 080°07'0 0.0
2017-Nov-11 14:57N 26°04' W 080°07'0 0.0
2017-Nov-11 14:27N 26°04' W 080°07'0 0.0
2017-Nov-11 13:57N 26°04' W 080°07'0 0.0
2017-Nov-11 13:27N 26°04' W 080°07'0 0.0
2017-Nov-11 13:00N 26°04' W 080°07'0 0.0
2017-Nov-11 12:30N 26°04' W 080°07'0 0.0
2017-Nov-11 12:00N 26°04' W 080°07'0 0.0
2017-Nov-11 11:30N 26°04' W 080°07'0 0.0
2017-Nov-11 11:00N 26°04' W 080°07'0 0.0
2017-Nov-11 10:30N 26°04' W 080°07'0 0.0
2017-Nov-11 10:00N 26°04' W 080°07'0 0.0
2017-Nov-11 09:30N 26°04' W 080°07'0 0.0
2017-Nov-11 09:00N 26°04' W 080°07'0 0.0
2017-Nov-11 08:30N 26°04' W 080°07'0 0.0
2017-Nov-11 08:00N 26°04' W 080°07'0 0.0
2017-Nov-11 07:30N 26°04' W 080°07'0 0.0
2017-Nov-11 07:00N 26°04' W 080°07'0 0.0
2017-Nov-11 06:30N 26°04' W 080°07'0 0.0
2017-Nov-11 06:00N 26°04' W 080°07'0 0.0
2017-Nov-11 05:21N 26°04' W 080°07'0 0.0
2017-Nov-11 05:00N 26°04' W 080°07'0 0.0
2017-Nov-11 04:21N 26°04' W 080°07'0 0.0
2017-Nov-11 03:54N 26°04' W 080°07'0 0.0
2017-Nov-11 03:24N 26°04' W 080°07'0 0.0
2017-Nov-11 02:54N 26°04' W 080°07'0 0.0
2017-Nov-11 02:24N 26°04' W 080°07'0 0.0
2017-Nov-11 02:00N 26°04' W 080°07'1 2.9
2017-Nov-11 01:30N 26°06' W 080°06'510.4
2017-Nov-11 01:00N 26°04' W 080°01'2 3.6
2017-Nov-11 00:30N 26°03' W 079°59'1 1.5
2017-Nov-11 00:01N 26°02' W 079°59'0 1.0
2017-Nov-10 23:30N 26°02' W 079°59'1 2.8
2017-Nov-10 23:01N 26°03' W 079°58'5 9.1
2017-Nov-10 22:30N 26°08' W 079°57'5 9.7
2017-Nov-10 22:00N 26°12' W 079°56'510.5
2017-Nov-10 21:30N 26°18' W 079°55'816.5
2017-Nov-10 21:00N 26°26' W 079°55'917.3
2017-Nov-10 20:30N 26°35' W 079°55'1017.3
2017-Nov-10 19:54N 26°45' W 079°55'717.0
2017-Nov-10 19:30N 26°52' W 079°55'41 1.0
2017-Nov-09 01:18N 26°21' W 079°25'620.8
2017-Nov-09 01:01N 26°15' W 079°26'1920.8
2017-Nov-09 00:07N 25°56' W 079°24'220.7
2017-Nov-09 00:00N 25°54' W 079°24'1020.6
2017-Nov-08 23:31N 25°44' W 079°25'  
Track history (hours):
 
Tides and Currents Weather Stations Pressure Air Temp Water Temp Dewpoint Dewpoint Depression Visibility Wind Speed Wind Dir Waves Ship Positions

Fs Ipanema

Last reported at 2017-Nov-11 22:15 UTC. Time now 2017-Nov-18 17:58 UTC.
Position N 25°28' W 079°36'.

Length 180 m; draft 8.3 m.

Type: Cargo ship. MMSI: 636018056.

Date/timePositionNaut miles runAvg speedWind from/ knotsBaromVisibWave heightAir tempDewpointWater temp
2017-Nov-11 22:15N 25°28' W 079°36'417.4
2017-Nov-11 22:00N 25°33' W 079°37'917.1
2017-Nov-11 21:30N 25°41' W 079°39'816.9
2017-Nov-11 21:00N 25°49' W 079°41'816.0
2017-Nov-11 20:30N 25°55' W 079°47'714.0
2017-Nov-11 20:00N 25°59' W 079°53'5 9.5
2017-Nov-11 19:31N 26°01' W 079°58'510.2
2017-Nov-11 19:00N 26°04' W 080°03'4 7.6
2017-Nov-11 18:30N 26°05' W 080°07'1 1.4
2017-Nov-11 17:54N 26°04' W 080°07'0 0.0
2017-Nov-11 17:24N 26°04' W 080°07'0 0.0
2017-Nov-11 16:54N 26°04' W 080°07'0 0.0
2017-Nov-11 16:24N 26°04' W 080°07'0 0.0
2017-Nov-11 16:00N 26°04' W 080°07'0 0.0
2017-Nov-11 15:30N 26°04' W 080°07'0 0.0
2017-Nov-11 14:57N 26°04' W 080°07'0 0.0
2017-Nov-11 14:27N 26°04' W 080°07'0 0.0
2017-Nov-11 13:57N 26°04' W 080°07'0 0.0
2017-Nov-11 13:27N 26°04' W 080°07'0 0.0
2017-Nov-11 13:00N 26°04' W 080°07'0 0.0
2017-Nov-11 12:30N 26°04' W 080°07'0 0.0
2017-Nov-11 12:00N 26°04' W 080°07'0 0.0
2017-Nov-11 11:30N 26°04' W 080°07'0 0.0
2017-Nov-11 11:00N 26°04' W 080°07'0 0.0
2017-Nov-11 10:30N 26°04' W 080°07'0 0.0
2017-Nov-11 10:00N 26°04' W 080°07'0 0.0
2017-Nov-11 09:30N 26°04' W 080°07'0 0.0
2017-Nov-11 09:00N 26°04' W 080°07'0 0.0
2017-Nov-11 08:30N 26°04' W 080°07'0 0.0
2017-Nov-11 08:00N 26°04' W 080°07'0 0.0
2017-Nov-11 07:30N 26°04' W 080°07'0 0.0
2017-Nov-11 07:00N 26°04' W 080°07'0 0.0
2017-Nov-11 06:30N 26°04' W 080°07'0 0.0
2017-Nov-11 06:00N 26°04' W 080°07'0 0.0
2017-Nov-11 05:21N 26°04' W 080°07'0 0.0
2017-Nov-11 05:00N 26°04' W 080°07'0 0.0
2017-Nov-11 04:21N 26°04' W 080°07'0 0.0
2017-Nov-11 03:54N 26°04' W 080°07'0 0.0
2017-Nov-11 03:24N 26°04' W 080°07'0 0.0
2017-Nov-11 02:54N 26°04' W 080°07'0 0.0
2017-Nov-11 02:24N 26°04' W 080°07'0 0.0
2017-Nov-11 02:00N 26°04' W 080°07'1 2.9
2017-Nov-11 01:30N 26°06' W 080°06'510.4
2017-Nov-11 01:00N 26°04' W 080°01'2 3.6
2017-Nov-11 00:30N 26°03' W 079°59'1 1.5
2017-Nov-11 00:01N 26°02' W 079°59'0 1.0
2017-Nov-10 23:30N 26°02' W 079°59'1 2.8
2017-Nov-10 23:01N 26°03' W 079°58'5 9.1
2017-Nov-10 22:30N 26°08' W 079°57'5 9.7
2017-Nov-10 22:00N 26°12' W 079°56'510.5
2017-Nov-10 21:30N 26°18' W 079°55'816.5
2017-Nov-10 21:00N 26°26' W 079°55'917.3
2017-Nov-10 20:30N 26°35' W 079°55'1017.3
2017-Nov-10 19:54N 26°45' W 079°55'717.0
2017-Nov-10 19:30N 26°52' W 079°55'41 1.0
2017-Nov-09 01:18N 26°21' W 079°25'620.8
2017-Nov-09 01:01N 26°15' W 079°26'1920.8
2017-Nov-09 00:07N 25°56' W 079°24'220.7
2017-Nov-09 00:00N 25°54' W 079°24'1020.6
2017-Nov-08 23:31N 25°44' W 079°25'  

Dump ship's entire track history